Terminal Aerodrome Forecast
Issued by NWS Cleveland, OH

Home | Current Version | Previous Version | Text Only | Print | Product List | Glossary Off
Versions: 1 2 3 4 5 6 7 8 9 10 11 12 13 14 15 16 17 18 19 20 21 22 23 24 25 26

855
FTUS41 KCLE 302335
TAFCLE
TAF
KCLE 302335Z 0100/0206 08005KT 3SM -RA BR OVC025
      TEMPO 0100/0102 2SM -RA BR
     FM010200 08008KT 3SM -RA BR OVC015
      TEMPO 0102/0105 2SM -RA BR OVC008
     FM010500 14010KT 3SM -RA BR OVC008
      TEMPO 0111/0114 2SM BR OVC004
     FM011500 32006KT 6SM BR OVC012
     FM020000 03004KT 6SM BR OVC008=

USA.gov is the U.S. government's official web portal to all federal, state and local government web resources and services.